Time;durP1;ratioP1;P1;durP2;ratioP2;P2;SDS_P1;SDS_P2;PMS_P1;PMS_P2;Temp;Humidity;BMP_temperature;BMP_pressure;BME280_temperature;BME280_humidity;BME280_pressure;Samples;Min_cycle;Max_cycle;Signal;HPM_P1;HPM_P2
2024/03/13 00:02:38;;;;;;;86.00;43.50;;;;;;;5.66;100.00;100476.80;214883;1283;112073;-84
2024/03/13 00:07:40;;;;;;;75.20;41.50;;;;;;;5.57;100.00;100478.96;214712;1284;140233;-84
2024/03/13 00:12:42;;;;;;;74.40;40.20;;;;;;;5.45;100.00;100477.08;215265;1285;139076;-84
2024/03/13 00:17:44;;;;;;;76.10;38.30;;;;;;;5.33;100.00;100473.23;214418;1282;139958;-84
2024/03/13 00:22:45;;;;;;;69.90;36.50;;;;;;;5.24;100.00;100476.09;214711;1285;139022;-84
2024/03/13 00:27:46;;;;;;;67.30;36.20;;;;;;;5.17;100.00;100473.58;215139;1283;139883;-85
2024/03/13 00:32:46;;;;;;;64.60;35.30;;;;;;;5.08;100.00;100478.98;215231;1287;98250;-84
2024/03/13 00:37:47;;;;;;;63.30;34.90;;;;;;;5.00;100.00;100478.23;214124;1288;139784;-84
2024/03/13 00:42:48;;;;;;;64.40;33.70;;;;;;;4.94;100.00;100477.15;214538;1285;139802;-84
2024/03/13 00:47:48;;;;;;;52.40;30.10;;;;;;;4.91;100.00;100481.36;214087;1284;140352;-83
2024/03/13 00:52:48;;;;;;;53.60;29.10;;;;;;;4.87;100.00;100478.33;214369;1288;138844;-83
2024/03/13 00:57:49;;;;;;;49.60;27.10;;;;;;;4.82;100.00;100479.09;214051;1288;140727;-83
2024/03/13 01:02:49;;;;;;;48.20;24.50;;;;;;;4.79;100.00;100481.49;214582;1288;98017;-82
2024/03/13 01:07:50;;;;;;;46.50;25.60;;;;;;;4.76;100.00;100475.59;214174;1283;140549;-84
2024/03/13 01:12:51;;;;;;;45.90;24.40;;;;;;;4.72;100.00;100472.13;214557;1282;138997;-83
2024/03/13 01:17:51;;;;;;;41.30;23.20;;;;;;;4.70;100.00;100476.02;213992;1287;140719;-84
2024/03/13 01:22:55;;;;;;;42.60;24.20;;;;;;;4.69;100.00;100475.13;214506;1282;138987;-83
2024/03/13 01:27:56;;;;;;;50.50;24.40;;;;;;;4.69;100.00;100482.23;214141;1285;142523;-83
2024/03/13 01:32:57;;;;;;;48.70;26.00;;;;;;;4.69;100.00;100486.44;215773;1288;139336;-83
2024/03/13 01:37:58;;;;;;;46.00;23.10;;;;;;;4.70;100.00;100484.98;214250;1283;141781;-83
2024/03/13 01:59:03;;;;;;;43.80;22.90;;;;;;;4.79;100.00;100477.21;216803;1288;140301;-83
2024/03/13 02:04:03;;;;;;;44.00;22.30;;;;;;;4.84;100.00;100474.95;215168;1282;140110;-83
2024/03/13 02:09:05;;;;;;;46.30;21.80;;;;;;;4.87;100.00;100474.29;214726;1288;140596;-83
2024/03/13 02:14:05;;;;;;;39.30;20.00;;;;;;;4.92;100.00;100478.88;215073;1288;97995;-83
2024/03/13 02:19:07;;;;;;;43.70;20.10;;;;;;;4.97;100.00;100477.67;214255;1288;139929;-83
2024/03/13 02:24:07;;;;;;;45.50;21.20;;;;;;;5.02;100.00;100480.63;214625;1288;139048;-83
2024/03/13 02:29:08;;;;;;;48.50;21.60;;;;;;;5.08;100.00;100483.89;214372;1288;141392;-83
2024/03/13 02:34:09;;;;;;;43.10;21.40;;;;;;;5.15;100.00;100479.53;215616;1285;139865;-84
2024/03/13 02:39:09;;;;;;;38.00;21.30;;;;;;;5.19;100.00;100477.56;214257;1283;139994;-84
2024/03/13 02:44:10;;;;;;;46.50;21.60;;;;;;;5.23;100.00;100480.33;214710;1286;98983;-84
2024/03/13 02:49:11;;;;;;;44.50;21.60;;;;;;;5.29;100.00;100476.86;214037;1287;139798;-84
2024/03/13 02:54:11;;;;;;;46.80;21.90;;;;;;;5.33;100.00;100479.08;214600;1286;139123;-84
2024/03/13 02:59:11;;;;;;;38.40;20.20;;;;;;;5.37;100.00;100484.46;214116;1284;140552;-83
2024/03/13 03:04:12;;;;;;;42.00;21.80;;;;;;;5.41;100.00;100484.43;214357;1283;138910;-83
2024/03/13 03:09:13;;;;;;;48.10;22.60;;;;;;;5.45;100.00;100483.71;214052;1283;140665;-84
2024/03/13 03:14:13;;;;;;;57.00;25.50;;;;;;;5.48;100.00;100486.46;214706;1288;98017;-83
2024/03/13 03:19:17;;;;;;;55.50;25.20;;;;;;;5.54;100.00;100489.38;214167;1282;139801;-84
2024/03/13 03:24:17;;;;;;;49.70;25.10;;;;;;;5.60;100.00;100490.20;214628;1284;138735;-83
2024/03/13 03:29:17;;;;;;;46.60;24.20;;;;;;;5.64;100.00;100487.67;214182;1287;141030;-84
2024/03/13 03:34:18;;;;;;;52.70;25.80;;;;;;;5.66;100.00;100488.05;216164;1286;138303;-83
2024/03/13 03:39:23;;;;;;;54.10;25.00;;;;;;;5.74;100.00;100488.61;214103;1282;140111;-83
2024/03/13 03:44:27;;;;;;;;;;;;;;;5.77;100.00;100491.92;214994;1287;98433;-83
2024/03/13 03:49:27;;;;;;;51.20;22.40;;;;;;;5.82;100.00;100487.40;214510;1283;125909;-83
2024/03/13 03:54:29;;;;;;;57.40;26.40;;;;;;;5.84;100.00;100491.70;215115;1283;138676;-84
2024/03/13 03:59:29;;;;;;;55.80;26.00;;;;;;;5.89;100.00;100493.02;214607;1287;140126;-83
2024/03/13 04:04:30;;;;;;;53.70;24.70;;;;;;;5.93;100.00;100496.20;214681;1283;138875;-83
2024/03/13 04:09:30;;;;;;;58.10;28.50;;;;;;;5.96;100.00;100502.23;213905;1288;140235;-83
2024/03/13 04:14:31;;;;;;;51.70;25.70;;;;;;;5.98;100.00;100503.99;214527;1289;98127;-83
2024/03/13 04:19:31;;;;;;;56.00;28.40;;;;;;;6.00;100.00;100508.56;214065;1289;140710;-83
2024/03/13 04:24:32;;;;;;;53.50;26.40;;;;;;;6.01;100.00;100521.64;214668;1283;139369;-84
2024/03/13 04:29:33;;;;;;;53.40;29.40;;;;;;;6.02;100.00;100516.98;213919;1285;140617;-84
2024/03/13 04:34:33;;;;;;;52.70;27.30;;;;;;;6.02;100.00;100517.78;215799;1283;139427;-84
2024/03/13 04:39:33;;;;;;;54.80;28.20;;;;;;;6.03;100.00;100520.70;214115;1286;139958;-84
2024/03/13 04:44:34;;;;;;;50.00;25.20;;;;;;;6.04;100.00;100520.01;214712;1288;98044;-84
2024/03/13 04:49:36;;;;;;;56.60;28.70;;;;;;;6.05;100.00;100528.80;214139;1286;140578;-84
2024/03/13 04:54:37;;;;;;;49.10;25.70;;;;;;;6.05;100.00;100528.48;214434;1284;138870;-84
2024/03/13 04:59:37;;;;;;;50.80;26.80;;;;;;;6.04;100.00;100532.66;214078;1283;140143;-83
2024/03/13 05:04:38;;;;;;;51.40;26.40;;;;;;;6.04;100.00;100531.86;214403;1285;139414;-85
2024/03/13 05:09:41;;;;;;;46.10;24.60;;;;;;;6.04;100.00;100533.66;213951;1289;140867;-83
2024/03/13 05:14:42;;;;;;;61.70;30.40;;;;;;;6.04;100.00;100532.05;214287;1283;99325;-83
2024/03/13 05:19:43;;;;;;;59.80;28.70;;;;;;;6.02;100.00;100530.56;213967;1282;139647;-83
2024/03/13 05:24:44;;;;;;;57.80;28.70;;;;;;;6.01;100.00;100534.06;214432;1286;138684;-83
2024/03/13 05:29:45;;;;;;;53.60;28.70;;;;;;;5.99;100.00;100540.86;214179;1285;140175;-84
2024/03/13 05:34:46;;;;;;;55.20;29.50;;;;;;;5.95;100.00;100543.47;214950;1283;138910;-83
2024/03/13 05:39:48;;;;;;;57.30;29.10;;;;;;;5.96;100.00;100552.84;215565;1286;139411;-83
2024/03/13 05:44:49;;;;;;;52.70;30.50;;;;;;;5.94;100.00;100550.29;215162;1283;98835;-83
2024/03/13 05:49:49;;;;;;;54.20;28.30;;;;;;;5.93;100.00;100552.38;214705;1287;140039;-83
2024/03/13 05:54:50;;;;;;;60.70;29.90;;;;;;;5.93;100.00;100556.42;215012;1285;138717;-84
2024/03/13 05:59:51;;;;;;;57.50;30.00;;;;;;;5.94;100.00;100558.57;214244;1282;140054;-83
2024/03/13 06:05:02;;;;;;;49.80;27.20;;;;;;;5.94;100.00;100565.82;215290;1287;138813;-82
2024/03/13 06:10:03;;;;;;;54.00;28.90;;;;;;;5.95;100.00;100572.80;214259;1286;140605;-84
2024/03/13 06:15:07;;;;;;;62.00;28.40;;;;;;;5.97;100.00;100569.28;214990;1285;139728;-83
2024/03/13 06:20:12;;;;;;;54.50;29.80;;;;;;;6.02;100.00;100571.95;214213;1287;139998;-83
2024/03/13 06:25:14;;;;;;;55.10;28.70;;;;;;;6.08;100.00;100573.98;214587;1283;138627;-83
2024/03/13 06:30:14;;;;;;;56.90;28.20;;;;;;;6.13;100.00;100575.70;213987;1283;140028;-84
2024/03/13 06:35:15;;;;;;;52.10;27.50;;;;;;;6.16;100.00;100577.61;214455;1283;139119;-84
2024/03/13 06:40:15;;;;;;;52.80;29.30;;;;;;;6.21;100.00;100579.89;215159;1284;140197;-83
2024/03/13 06:45:16;;;;;;;63.90;33.00;;;;;;;6.27;100.00;100580.89;214493;1285;140023;-84
2024/03/13 06:50:17;;;;;;;56.60;30.50;;;;;;;6.32;100.00;100585.44;214211;1288;140090;-84
2024/03/13 06:55:17;;;;;;;73.60;37.30;;;;;;;6.39;100.00;100590.81;214657;1283;138840;-84
2024/03/13 07:00:18;;;;;;;76.60;46.00;;;;;;;6.45;100.00;100592.32;214043;1285;140808;-84
2024/03/13 07:05:18;;;;;;;78.80;47.80;;;;;;;6.48;100.00;100593.36;214553;1288;139915;-84
2024/03/13 07:10:19;;;;;;;72.80;40.80;;;;;;;6.53;100.00;100591.79;214285;1285;140928;-84
2024/03/13 07:15:19;;;;;;;63.40;35.00;;;;;;;6.59;100.00;100590.70;214635;1283;138851;-84
2024/03/13 07:20:19;;;;;;;63.70;33.30;;;;;;;6.65;100.00;100591.45;214183;1285;151716;-84
2024/03/13 07:25:20;;;;;;;66.90;34.30;;;;;;;6.69;100.00;100590.55;214830;1286;138940;-84
2024/03/13 07:30:21;;;;;;;65.60;35.10;;;;;;;6.74;100.00;100589.11;214288;1283;139799;-83
2024/03/13 07:35:24;;;;;;;95.00;45.60;;;;;;;6.79;100.00;100593.24;214804;1285;139226;-84
2024/03/13 07:40:26;;;;;;;140.60;55.70;;;;;;;6.87;100.00;100598.63;214265;1283;140229;-84
2024/03/13 07:45:27;;;;;;;97.40;38.30;;;;;;;6.95;100.00;100598.17;214537;1282;139414;-85
2024/03/13 07:50:28;;;;;;;94.80;39.70;;;;;;;7.02;100.00;100597.09;213903;1282;142034;-84
2024/03/13 07:55:28;;;;;;;160.60;54.30;;;;;;;7.08;100.00;100600.71;214383;1286;139209;-84
2024/03/13 08:00:29;;;;;;;71.50;35.00;;;;;;;7.16;100.00;100599.77;214048;1283;140286;-84
2024/03/13 08:05:30;;;;;;;147.90;47.90;;;;;;;7.21;100.00;100610.15;214296;1282;138876;-83
2024/03/13 08:10:31;;;;;;;93.60;38.70;;;;;;;7.30;100.00;100614.86;214010;1286;141077;-83
2024/03/13 08:15:31;;;;;;;84.30;37.60;;;;;;;7.37;100.00;100619.50;214695;1283;138870;-84
2024/03/13 08:20:32;;;;;;;75.90;34.20;;;;;;;7.48;100.00;100625.80;214159;1285;139806;-84
2024/03/13 08:25:33;;;;;;;66.80;34.40;;;;;;;7.57;100.00;100624.95;214451;1283;138782;-82
2024/03/13 08:30:34;;;;;;;74.70;34.50;;;;;;;7.66;100.00;100633.02;213649;1282;355748;-83
2024/03/13 08:35:34;;;;;;;62.60;32.70;;;;;;;7.72;100.00;100636.94;214630;1286;138814;-83
2024/03/13 08:40:35;;;;;;;66.50;34.90;;;;;;;7.80;100.00;100640.89;214154;1284;140027;-84
2024/03/13 08:45:35;;;;;;;65.80;34.00;;;;;;;7.89;100.00;100642.30;214779;1282;138984;-84
2024/03/13 08:50:36;;;;;;;62.80;33.10;;;;;;;7.99;100.00;100640.90;214293;1285;142025;-82
2024/03/13 08:55:39;;;;;;;70.20;34.20;;;;;;;8.08;100.00;100635.65;214887;1282;139195;-83
2024/03/13 09:00:39;;;;;;;75.80;35.40;;;;;;;8.15;100.00;100640.30;214694;1286;206936;-83
2024/03/13 09:05:40;;;;;;;66.60;33.40;;;;;;;8.24;100.00;100639.18;215261;1287;140034;-83
2024/03/13 09:10:41;;;;;;;66.00;34.10;;;;;;;8.32;100.00;100639.00;214571;1283;139889;-83
2024/03/13 09:15:41;;;;;;;62.60;33.50;;;;;;;8.41;100.00;100647.35;214466;1283;139489;-84
2024/03/13 09:20:42;;;;;;;60.80;32.40;;;;;;;8.48;100.00;100647.05;213916;1286;139905;-84
2024/03/13 09:25:42;;;;;;;58.30;32.30;;;;;;;8.57;100.00;100653.92;214375;1284;138764;-83
2024/03/13 09:30:43;;;;;;;66.40;33.60;;;;;;;8.67;100.00;100656.58;213920;1283;139939;-84
2024/03/13 09:35:43;;;;;;;55.40;30.60;;;;;;;8.80;100.00;100661.17;214126;1282;138984;-84
2024/03/13 09:40:44;;;;;;;63.40;33.20;;;;;;;8.89;100.00;100662.40;214136;1285;140658;-83
2024/03/13 09:45:47;;;;;;;64.30;32.40;;;;;;;9.01;100.00;100668.52;214588;1283;138910;-84
2024/03/13 09:50:49;;;;;;;58.10;31.70;;;;;;;9.12;100.00;100670.71;213823;1282;140452;-84
2024/03/13 09:55:50;;;;;;;63.30;33.10;;;;;;;9.18;100.00;100672.95;214947;1282;139402;-83
2024/03/13 10:00:56;;;;;;;70.90;34.80;;;;;;;9.27;100.00;100677.30;214020;1282;140288;-83
2024/03/13 10:06:10;;;;;;;63.50;34.30;;;;;;;9.34;100.00;100676.34;214747;1283;139863;-84
2024/03/13 10:11:14;;;;;;;75.40;35.60;;;;;;;9.39;100.00;100678.39;214035;1282;139935;-83
2024/03/13 10:16:16;;;;;;;59.00;33.40;;;;;;;9.49;100.00;100681.97;214481;1283;140235;-84
2024/03/13 10:21:27;;;;;;;54.70;30.90;;;;;;;9.56;100.00;100684.95;214116;1286;140545;-84
2024/03/13 10:26:29;;;;;;;54.80;28.90;;;;;;;9.69;100.00;100687.25;214117;1288;140180;-84
2024/03/13 10:31:32;;;;;;;50.80;29.30;;;;;;;9.80;100.00;100688.14;214442;1283;139876;-84
2024/03/13 10:36:32;;;;;;;52.80;29.40;;;;;;;9.86;100.00;100692.42;214123;1284;140802;-83
2024/03/13 10:41:32;;;;;;;51.60;29.20;;;;;;;9.94;100.00;100690.27;214462;1284;138952;-84
2024/03/13 10:46:33;;;;;;;50.10;29.90;;;;;;;10.05;100.00;100695.67;213921;1283;141122;-84
2024/03/13 10:51:33;;;;;;;48.00;26.40;;;;;;;10.16;100.00;100699.03;214579;1283;139021;-83
2024/03/13 10:56:33;;;;;;;48.90;28.00;;;;;;;10.23;100.00;100692.63;214091;1288;141389;-83
2024/03/13 11:01:34;;;;;;;50.90;28.60;;;;;;;10.35;100.00;100688.27;214645;1283;139384;-83
2024/03/13 11:06:35;;;;;;;47.70;27.90;;;;;;;10.48;100.00;100684.38;214194;1286;142189;-83
2024/03/13 11:11:37;;;;;;;50.50;28.10;;;;;;;10.58;100.00;100685.55;214662;1283;139168;-83
2024/03/13 11:16:40;;;;;;;46.30;28.00;;;;;;;10.65;100.00;100678.11;214175;1282;141473;-83
2024/03/13 11:21:56;;;;;;;43.60;26.50;;;;;;;10.79;100.00;100672.96;214514;1288;139702;-83
2024/03/13 11:27:06;;;;;;;50.10;28.90;;;;;;;10.96;100.00;100666.02;214528;1287;141347;-83
2024/03/13 11:32:08;;;;;;;48.00;28.20;;;;;;;11.12;100.00;100666.09;215085;1282;112304;-84
2024/03/13 11:37:11;;;;;;;45.80;28.60;;;;;;;11.25;100.00;100663.73;214234;1282;140627;-83
2024/03/13 11:42:14;;;;;;;51.40;29.80;;;;;;;11.35;100.00;100659.44;214502;1282;139431;-83
2024/03/13 11:47:16;;;;;;;44.30;28.30;;;;;;;11.44;100.00;100652.85;213975;1287;140609;-84
2024/03/13 11:52:17;;;;;;;53.00;31.50;;;;;;;11.55;100.00;100645.10;214358;1282;139218;-83
2024/03/13 11:57:17;;;;;;;49.60;31.50;;;;;;;11.67;100.00;100643.83;213754;1285;140787;-82
2024/03/13 12:02:27;;;;;;;46.90;30.50;;;;;;;11.79;100.00;100643.73;214480;1286;116572;-83
2024/03/13 12:07:27;;;;;;;48.10;31.60;;;;;;;11.94;100.00;100643.62;214056;1282;140438;-83
2024/03/13 12:12:28;;;;;;;48.40;31.60;;;;;;;12.10;100.00;100639.88;214468;1283;139112;-83
2024/03/13 12:17:28;;;;;;;50.00;32.60;;;;;;;12.22;100.00;100638.98;214050;1282;141384;-83
2024/03/13 12:22:30;;;;;;;51.00;31.70;;;;;;;12.30;100.00;100636.51;214975;1282;139286;-84
2024/03/13 12:27:32;;;;;;;52.40;34.00;;;;;;;12.35;100.00;100638.05;214189;1282;140726;-83
2024/03/13 12:32:33;;;;;;;45.40;31.20;;;;;;;12.45;100.00;100633.67;215313;1282;105558;-83
2024/03/13 12:37:35;;;;;;;47.40;33.50;;;;;;;12.57;100.00;100626.73;215681;1282;141599;-84
2024/03/13 12:42:39;;;;;;;43.10;29.40;;;;;;;12.67;100.00;100632.34;219704;1282;139171;-84
2024/03/13 12:47:41;;;;;;;48.80;40.10;;;;;;;12.67;100.00;100632.73;216785;1286;140556;-82
2024/03/13 12:52:44;;;;;;;48.30;39.70;;;;;;;12.69;100.00;100638.80;214546;1282;139432;-85
2024/03/13 12:57:47;;;;;;;54.50;48.10;;;;;;;12.71;100.00;100635.67;214171;1282;140422;-85
2024/03/13 13:02:53;;;;;;;55.70;50.20;;;;;;;12.81;100.00;100632.80;214625;1282;112211;-84
2024/03/13 13:07:58;;;;;;;74.90;68.10;;;;;;;12.97;100.00;100635.98;214233;1286;140384;-85
2024/03/13 13:12:59;;;;;;;68.40;62.10;;;;;;;13.11;100.00;100635.02;214322;1284;139441;-84
2024/03/13 13:18:00;;;;;;;63.30;57.40;;;;;;;13.23;100.00;100638.95;213987;1285;140581;-84
2024/03/13 13:23:00;;;;;;;88.00;81.10;;;;;;;13.36;100.00;100639.70;214452;1288;140151;-84
2024/03/13 13:28:00;;;;;;;78.40;70.90;;;;;;;13.46;100.00;100642.73;214089;1282;140850;-84
2024/03/13 13:33:02;;;;;;;89.20;82.00;;;;;;;13.54;100.00;100643.07;214678;1282;139291;-83
2024/03/13 13:38:03;;;;;;;74.60;68.40;;;;;;;13.59;100.00;100644.98;214700;1284;141399;-84
2024/03/13 13:43:03;;;;;;;88.80;81.90;;;;;;;13.52;100.00;100641.55;214997;1282;140143;-83
2024/03/13 13:48:09;;;;;;;96.30;88.80;;;;;;;13.57;100.00;100637.08;214556;1282;140587;-83
2024/03/13 13:53:11;;;;;;;64.70;58.40;;;;;;;13.62;100.00;100634.79;215323;1286;139711;-83
2024/03/13 13:58:11;;;;;;;59.00;52.80;;;;;;;13.68;100.00;100630.23;213882;1288;209132;-83
2024/03/13 14:03:12;;;;;;;90.30;83.10;;;;;;;13.68;100.00;100633.92;214695;1282;141560;-84
2024/03/13 14:08:14;;;;;;;79.20;72.30;;;;;;;13.50;100.00;100634.68;214334;1282;140397;-84
2024/03/13 14:13:15;;;;;;;48.20;42.90;;;;;;;13.44;100.00;100635.61;214616;1285;139184;-84
2024/03/13 14:18:16;;;;;;;66.40;60.20;;;;;;;13.44;100.00;100633.16;213992;1282;140504;-83
2024/03/13 14:23:17;;;;;;;55.20;50.00;;;;;;;13.47;100.00;100625.75;214573;1282;139817;-83
2024/03/13 14:28:17;;;;;;;60.40;54.60;;;;;;;13.49;100.00;100628.43;214389;1285;140609;-84
2024/03/13 14:33:18;;;;;;;79.40;72.50;;;;;;;13.52;100.00;100627.81;214339;1285;140167;-83
2024/03/13 14:38:18;;;;;;;66.00;60.00;;;;;;;13.46;100.00;100629.14;214282;1285;141355;-84
2024/03/13 14:43:19;;;;;;;70.90;64.60;;;;;;;13.42;100.00;100629.29;214608;1288;139304;-84
2024/03/13 14:48:19;;;;;;;47.70;38.80;;;;;;;13.36;100.00;100627.93;214176;1282;142713;-84
2024/03/13 14:53:20;;;;;;;51.10;45.00;;;;;;;13.29;100.00;100635.96;215572;1286;139828;-83
2024/03/13 14:58:20;;;;;;;48.80;37.40;;;;;;;13.22;100.00;100629.61;213935;1282;140498;-82
2024/03/13 15:03:21;;;;;;;48.70;42.50;;;;;;;13.06;100.00;100629.16;214377;1288;139336;-84
2024/03/13 15:08:21;;;;;;;52.90;46.40;;;;;;;12.95;100.00;100626.80;213998;1285;140309;-82
2024/03/13 15:13:22;;;;;;;49.20;42.40;;;;;;;12.92;100.00;100627.09;214255;1285;139285;-83
2024/03/13 15:18:23;;;;;;;63.20;57.40;;;;;;;12.84;100.00;100620.12;213683;1287;140327;-83
2024/03/13 15:23:25;;;;;;;49.40;41.40;;;;;;;12.78;100.00;100624.82;214313;1282;139319;-83
2024/03/13 15:28:25;;;;;;;66.50;60.60;;;;;;;12.71;100.00;100626.20;213870;1287;140673;-83
2024/03/13 15:33:25;;;;;;;65.40;59.90;;;;;;;12.65;100.00;100628.36;214332;1285;139768;-83
2024/03/13 15:38:26;;;;;;;58.90;53.00;;;;;;;12.58;100.00;100633.06;213965;1287;140285;-83
2024/03/13 15:43:26;;;;;;;48.20;42.90;;;;;;;12.47;100.00;100630.39;214299;1288;139651;-82
2024/03/13 15:48:27;;;;;;;47.30;37.40;;;;;;;12.34;100.00;100628.17;213941;1282;140618;-82
2024/03/13 15:53:27;;;;;;;44.00;37.40;;;;;;;12.21;100.00;100634.15;216180;1285;139967;-82
2024/03/13 15:58:27;;;;;;;45.70;36.60;;;;;;;12.15;100.00;100633.00;212762;1282;140718;-82
2024/03/13 16:03:28;;;;;;;46.50;37.30;;;;;;;12.08;100.00;100629.56;213021;1288;140003;-82
2024/03/13 16:08:53;;;;;;;42.80;30.70;;;;;;;11.96;100.00;100634.82;213801;1282;140361;-82
2024/03/13 16:13:56;;;;;;;44.30;30.10;;;;;;;11.85;100.00;100636.52;214298;1285;139319;-83
2024/03/13 16:18:57;;;;;;;45.60;28.80;;;;;;;11.80;100.00;100627.73;213843;1284;141010;-82
2024/03/13 16:23:58;;;;;;;49.20;30.00;;;;;;;11.77;100.00;100634.09;214381;1282;139214;-82
2024/03/13 16:28:58;;;;;;;40.70;25.80;;;;;;;11.65;100.00;100633.09;214026;1283;140355;-82
2024/03/13 16:33:59;;;;;;;40.80;26.80;;;;;;;11.51;100.00;100634.97;214116;1285;139235;-81
2024/03/13 16:39:00;;;;;;;41.00;28.30;;;;;;;11.41;100.00;100636.28;214039;1287;140599;-82
2024/03/13 16:44:00;;;;;;;41.90;26.70;;;;;;;11.32;100.00;100637.36;214465;1284;98285;-82
2024/03/13 16:49:04;;;;;;;42.90;27.60;;;;;;;11.22;100.00;100637.24;214080;1282;140221;-83
2024/03/13 16:54:05;;;;;;;43.30;27.40;;;;;;;11.14;100.00;100639.75;216060;1285;139549;-84
2024/03/13 16:59:06;;;;;;;56.20;29.30;;;;;;;11.05;100.00;100641.13;214013;1282;141205;-83
2024/03/13 17:04:06;;;;;;;57.20;32.40;;;;;;;10.94;100.00;100648.92;214366;1282;139343;-83
2024/03/13 17:09:07;;;;;;;47.00;27.50;;;;;;;10.83;100.00;100644.63;214047;1282;140472;-84
2024/03/13 17:14:08;;;;;;;53.20;29.70;;;;;;;10.75;100.00;100650.33;214281;1282;98933;-84
2024/03/13 17:19:08;;;;;;;52.70;30.90;;;;;;;10.57;100.00;100654.80;214181;1283;140503;-84
2024/03/13 17:24:08;;;;;;;55.30;29.70;;;;;;;10.41;100.00;100663.50;214464;1283;139503;-84
2024/03/13 17:29:09;;;;;;;57.60;30.70;;;;;;;10.27;100.00;100660.15;213804;1284;140406;-86
2024/03/13 17:34:10;;;;;;;69.80;34.20;;;;;;;10.16;100.00;100660.45;214954;1282;139611;-86
2024/03/13 17:39:11;;;;;;;83.70;41.30;;;;;;;9.99;100.00;100657.31;214526;1285;140316;-85
2024/03/13 17:44:14;;;;;;;67.80;37.80;;;;;;;9.78;100.00;100661.10;214602;1287;98033;-85
2024/03/13 17:49:15;;;;;;;62.80;34.70;;;;;;;9.61;100.00;100656.69;214206;1288;139731;-85
2024/03/13 17:54:16;;;;;;;74.70;37.20;;;;;;;9.48;100.00;100663.03;214799;1285;139260;-85
2024/03/13 17:59:16;;;;;;;321.60;112.50;;;;;;;9.32;100.00;100659.73;214300;1285;139946;-85
2024/03/13 18:04:17;;;;;;;400.50;134.20;;;;;;;9.15;100.00;100658.94;214572;1288;139615;-85
2024/03/13 18:09:19;;;;;;;405.80;133.90;;;;;;;8.94;100.00;100662.27;214269;1282;140369;-85
2024/03/13 18:14:20;;;;;;;315.50;108.00;;;;;;;8.76;100.00;100668.85;214699;1283;98899;-85
2024/03/13 18:19:20;;;;;;;213.10;76.00;;;;;;;8.58;100.00;100671.34;214255;1283;140471;-85
2024/03/13 18:24:20;;;;;;;141.60;58.30;;;;;;;8.39;100.00;100668.92;214934;1283;140338;-85
2024/03/13 18:29:21;;;;;;;317.80;106.70;;;;;;;8.20;100.00;100672.60;213770;1284;140119;-85
2024/03/13 18:34:22;;;;;;;445.00;152.40;;;;;;;8.02;100.00;100678.16;214477;1286;139507;-85
2024/03/13 18:39:23;;;;;;;187.80;69.50;;;;;;;7.90;100.00;100684.59;214118;1285;140516;-85
2024/03/13 18:44:24;;;;;;;182.30;68.10;;;;;;;7.71;100.00;100682.39;215424;1286;97970;-85
2024/03/13 18:49:24;;;;;;;141.70;58.80;;;;;;;7.56;100.00;100681.50;214272;1287;139940;-84
2024/03/13 18:54:25;;;;;;;148.40;58.50;;;;;;;7.42;100.00;100681.91;215573;1287;138880;-84
2024/03/13 18:59:28;;;;;;;153.30;59.30;;;;;;;7.29;100.00;100682.93;213902;1283;140204;-84
2024/03/13 19:04:28;;;;;;;102.20;45.00;;;;;;;7.16;100.00;100677.09;214852;1285;138993;-84
2024/03/13 19:09:28;;;;;;;99.00;44.90;;;;;;;7.00;100.00;100675.45;214209;1283;140451;-85
2024/03/13 19:14:29;;;;;;;91.20;43.10;;;;;;;6.85;100.00;100679.79;214655;1282;98004;-85
2024/03/13 19:19:29;;;;;;;81.40;38.80;;;;;;;6.68;100.00;100681.21;214148;1288;140214;-85
2024/03/13 19:24:34;;;;;;;84.70;40.80;;;;;;;6.53;100.00;100678.34;214529;1288;138974;-85
2024/03/13 19:29:34;;;;;;;92.80;45.60;;;;;;;6.39;100.00;100684.37;214053;1288;143311;-84
2024/03/13 19:34:34;;;;;;;90.50;43.30;;;;;;;6.25;100.00;100687.37;214616;1286;138935;-85
2024/03/13 19:39:36;;;;;;;81.40;40.30;;;;;;;6.15;100.00;100686.16;214205;1288;140032;-85
2024/03/13 19:44:36;;;;;;;85.50;43.70;;;;;;;6.03;100.00;100686.63;214943;1287;98711;-84
2024/03/13 19:49:36;;;;;;;91.60;44.80;;;;;;;5.91;100.00;100691.54;213863;1285;139950;-84
2024/03/13 19:54:37;;;;;;;79.10;41.90;;;;;;;5.77;100.00;100697.27;215174;1285;138648;-84
2024/03/13 19:59:38;;;;;;;88.00;42.10;;;;;;;5.68;100.00;100699.39;214097;1287;140142;-83
2024/03/13 20:04:39;;;;;;;71.20;37.70;;;;;;;5.59;100.00;100705.30;214454;1285;139480;-83
2024/03/13 20:09:41;;;;;;;83.80;41.50;;;;;;;5.53;100.00;100701.64;214351;1288;140745;-83
2024/03/13 20:14:42;;;;;;;79.10;39.50;;;;;;;5.47;100.00;100698.15;214803;1287;105615;-82
2024/03/13 20:19:42;;;;;;;75.40;39.60;;;;;;;5.41;100.00;100696.67;214146;1282;140011;-83
2024/03/13 20:24:43;;;;;;;75.20;38.80;;;;;;;5.35;100.00;100696.23;214543;1288;139203;-84
2024/03/13 20:29:43;;;;;;;83.40;39.50;;;;;;;5.30;100.00;100692.32;214351;1286;154920;-84
2024/03/13 20:34:44;;;;;;;73.80;38.30;;;;;;;5.26;100.00;100688.98;214288;1288;139557;-83
2024/03/13 20:39:45;;;;;;;90.00;41.70;;;;;;;5.23;100.00;100686.83;214149;1285;140734;-84
2024/03/13 20:44:45;;;;;;;80.70;39.40;;;;;;;5.22;100.00;100684.75;214621;1282;97943;-84
2024/03/13 20:49:45;;;;;;;81.80;38.90;;;;;;;5.19;100.00;100685.46;214187;1288;140095;-84
2024/03/13 20:54:47;;;;;;;88.90;41.10;;;;;;;5.17;100.00;100687.94;214555;1288;138978;-84
2024/03/13 20:59:47;;;;;;;83.30;40.70;;;;;;;5.15;100.00;100687.80;214116;1288;140956;-83
2024/03/13 21:04:48;;;;;;;105.10;46.90;;;;;;;5.15;100.00;100682.13;214492;1288;139870;-84
2024/03/13 21:09:48;;;;;;;98.80;45.30;;;;;;;5.15;100.00;100679.45;214157;1287;140094;-83
2024/03/13 21:14:49;;;;;;;97.00;44.60;;;;;;;5.14;100.00;100678.41;214477;1288;98402;-82
2024/03/13 21:19:49;;;;;;;86.40;44.00;;;;;;;5.13;100.00;100677.20;214222;1288;140681;-83
2024/03/13 21:24:50;;;;;;;80.50;39.90;;;;;;;5.15;100.00;100676.02;214702;1285;138743;-84
2024/03/13 21:29:50;;;;;;;84.60;43.00;;;;;;;5.15;100.00;100681.02;214445;1287;141252;-83
2024/03/13 21:34:51;;;;;;;79.40;39.60;;;;;;;5.13;100.00;100682.80;214981;1288;138922;-83
2024/03/13 21:39:51;;;;;;;84.70;42.00;;;;;;;5.13;100.00;100675.79;214391;1289;140002;-84
2024/03/13 21:44:52;;;;;;;82.70;41.20;;;;;;;5.14;100.00;100673.95;214919;1288;97982;-84
2024/03/13 21:49:55;;;;;;;89.70;46.00;;;;;;;5.14;100.00;100673.75;214545;1288;139941;-84
2024/03/13 21:54:56;;;;;;;106.50;52.70;;;;;;;5.15;100.00;100674.69;214677;1287;139259;-86
2024/03/13 21:59:56;;;;;;;123.00;61.50;;;;;;;5.19;100.00;100672.27;214108;1289;141045;-86
2024/03/13 22:04:57;;;;;;;92.30;47.70;;;;;;;5.22;100.00;100673.39;214235;1288;139071;-86
2024/03/13 22:09:57;;;;;;;92.80;47.70;;;;;;;5.21;100.00;100673.12;214146;1288;141246;-85
2024/03/13 22:14:58;;;;;;;102.30;48.30;;;;;;;5.18;100.00;100668.83;214730;1288;139794;-86
2024/03/13 22:19:59;;;;;;;90.10;45.50;;;;;;;5.17;100.00;100669.33;214276;1288;143478;-84
2024/03/13 22:24:59;;;;;;;96.90;47.10;;;;;;;5.16;100.00;100666.58;214531;1288;138714;-84
2024/03/13 22:30:00;;;;;;;88.60;43.80;;;;;;;5.16;100.00;100668.34;214067;1288;140396;-84